Time;durP1;ratioP1;P1;durP2;ratioP2;P2;SDS_P1;SDS_P2;PMS_P1;PMS_P2;Temp;Humidity;BMP_temperature;BMP_pressure;BME280_temperature;BME280_humidity;BME280_pressure;Samples;Min_cycle;Max_cycle;Signal;HPM_P1;HPM_P2
2021/08/27 00:01:23;;;;;;;5.80;2.25;;;14.60;99.90;;;;;;5032824;28;20087;-63
2021/08/27 00:03:49;;;;;;;9.30;2.97;;;14.50;99.90;;;;;;5035784;28;20045;-63
2021/08/27 00:06:15;;;;;;;9.70;3.10;;;14.40;99.90;;;;;;5041298;28;20041;-63
2021/08/27 00:08:41;;;;;;;6.50;2.60;;;14.40;99.90;;;;;;5035104;28;20046;-63
2021/08/27 00:11:07;;;;;;;14.57;2.45;;;14.30;99.90;;;;;;5040971;28;20049;-62
2021/08/27 00:13:33;;;;;;;12.60;3.70;;;14.30;99.90;;;;;;5033976;28;20113;-62
2021/08/27 00:15:59;;;;;;;10.23;2.47;;;14.30;99.90;;;;;;5042607;28;20048;-62
2021/08/27 00:18:25;;;;;;;10.18;2.58;;;14.20;99.90;;;;;;5033322;28;20041;-63
2021/08/27 00:20:50;;;;;;;15.68;2.70;;;14.20;99.90;;;;;;5039609;28;20042;-63
2021/08/27 00:23:16;;;;;;;11.65;2.13;;;14.30;99.90;;;;;;5032826;28;20045;-63
2021/08/27 00:25:42;;;;;;;14.80;2.53;;;14.30;99.90;;;;;;5037945;28;20077;-63
2021/08/27 00:28:09;;;;;;;12.57;3.08;;;14.30;99.90;;;;;;5053825;28;20033;-64
2021/08/27 00:30:34;;;;;;;17.20;2.95;;;14.30;99.90;;;;;;5054505;28;20056;-63
2021/08/27 00:33:00;;;;;;;9.20;2.35;;;14.40;99.90;;;;;;5055418;28;20489;-63
2021/08/27 00:35:26;;;;;;;8.07;1.92;;;14.40;99.90;;;;;;5053256;28;20096;-63
2021/08/27 00:37:52;;;;;;;7.85;1.98;;;14.50;99.90;;;;;;5044490;28;20042;-63
2021/08/27 00:40:18;;;;;;;14.65;2.58;;;14.70;99.90;;;;;;5059671;28;20051;-63
2021/08/27 00:42:44;;;;;;;9.68;2.40;;;14.80;99.90;;;;;;5051059;28;20041;-63
2021/08/27 00:45:10;;;;;;;11.48;2.88;;;15.00;99.90;;;;;;5052176;28;20063;-63
2021/08/27 00:47:36;;;;;;;13.55;3.67;;;14.90;99.90;;;;;;5043736;28;20044;-63
2021/08/27 00:50:02;;;;;;;8.65;2.55;;;15.00;99.90;;;;;;5050791;28;20053;-63
2021/08/27 00:52:28;;;;;;;8.43;2.38;;;14.90;99.90;;;;;;5054983;28;20057;-63
2021/08/27 00:54:54;;;;;;;13.27;2.30;;;15.00;99.90;;;;;;5045555;28;20045;-63
2021/08/27 00:57:20;;;;;;;13.38;2.70;;;15.10;99.90;;;;;;5060508;28;20045;-63
2021/08/27 00:59:46;;;;;;;9.00;2.20;;;15.10;99.90;;;;;;5059274;28;20121;-63
2021/08/27 01:02:12;;;;;;;10.15;2.10;;;15.10;99.90;;;;;;5057466;28;20048;-63
2021/08/27 01:04:45;;;;;;;19.60;2.55;;;15.10;99.90;;;;;;5042247;28;20041;-63
2021/08/27 01:07:17;;;;;;;13.55;3.38;;;15.10;99.90;;;;;;5055190;28;20053;-63
2021/08/27 01:10:02;;;;;;;13.30;3.08;;;15.00;99.90;;;;;;5040677;28;20549;-63
2021/08/27 01:12:55;;;;;;;15.02;3.28;;;15.00;99.90;;;;;;5057958;28;20528;-63
2021/08/27 01:15:32;;;;;;;11.65;3.80;;;15.00;99.90;;;;;;5045009;28;20048;-63
2021/08/27 01:18:11;;;;;;;13.70;2.90;;;15.10;99.90;;;;;;5053480;28;20089;-63
2021/08/27 01:20:48;;;;;;;;;;;15.10;99.90;;;;;;5049004;28;20053;-63
2021/08/27 01:23:23;;;;;;;12.05;3.20;;;15.10;99.90;;;;;;5062678;28;19924;-63
2021/08/27 01:25:52;;;;;;;13.45;2.83;;;15.20;99.90;;;;;;5045939;28;20104;-63
2021/08/27 01:28:21;;;;;;;9.40;2.58;;;15.30;99.90;;;;;;5052656;28;20037;-63
2021/08/27 01:31:05;;;;;;;6.18;2.20;;;15.30;99.90;;;;;;5043293;28;20058;-63
2021/08/27 01:33:32;;;;;;;8.45;2.10;;;15.30;99.90;;;;;;5059743;28;20044;-63
2021/08/27 01:36:01;;;;;;;13.27;2.20;;;15.30;99.90;;;;;;5038024;28;20053;-63
2021/08/27 01:38:33;;;;;;;12.98;3.15;;;15.20;99.90;;;;;;5056088;28;20497;-63
2021/08/27 01:41:01;;;;;;;10.25;2.92;;;15.30;99.90;;;;;;5041056;28;20052;-63
2021/08/27 01:43:28;;;;;;;8.07;1.73;;;15.10;99.90;;;;;;5054812;28;20041;-63
2021/08/27 01:45:59;;;;;;;8.45;1.83;;;15.00;99.90;;;;;;5042652;28;20038;-63
2021/08/27 01:48:27;;;;;;;9.57;2.40;;;15.00;99.90;;;;;;5056706;28;20049;-63
2021/08/27 01:50:54;;;;;;;7.25;1.60;;;15.00;99.90;;;;;;5042595;28;20042;-63
2021/08/27 01:53:25;;;;;;;5.93;2.17;;;15.10;99.90;;;;;;5047084;28;20041;-63
2021/08/27 01:55:56;;;;;;;16.38;3.42;;;15.10;99.90;;;;;;5054404;28;20045;-63
2021/08/27 01:58:25;;;;;;;8.55;2.28;;;15.20;99.90;;;;;;5048414;28;20389;-64
2021/08/27 02:00:52;;;;;;;13.57;2.58;;;15.30;99.90;;;;;;5063143;28;20052;-64
2021/08/27 02:03:19;;;;;;;7.28;2.33;;;15.30;99.90;;;;;;5048702;28;20512;-64
2021/08/27 02:05:45;;;;;;;16.48;2.88;;;15.30;99.90;;;;;;5061427;28;20044;-63
2021/08/27 02:08:12;;;;;;;12.77;2.72;;;15.30;99.90;;;;;;5047093;28;20049;-63
2021/08/27 02:10:39;;;;;;;12.93;2.30;;;15.30;99.90;;;;;;5038812;28;20086;-63
2021/08/27 02:13:05;;;;;;;12.50;2.15;;;15.30;99.90;;;;;;5048730;28;20042;-63
2021/08/27 02:15:31;;;;;;;10.55;2.28;;;15.30;99.90;;;;;;5055359;28;20044;-63
2021/08/27 02:17:56;;;;;;;6.22;1.77;;;15.30;99.90;;;;;;5051593;28;20502;-64
2021/08/27 02:20:22;;;;;;;10.82;2.03;;;15.20;99.90;;;;;;5052980;28;20042;-64
2021/08/27 02:22:52;;;;;;;7.43;1.80;;;15.20;99.90;;;;;;5053778;28;20049;-64
2021/08/27 02:25:22;;;;;;;4.85;1.50;;;15.20;99.90;;;;;;5036814;28;20088;-63
2021/08/27 02:27:49;;;;;;;11.25;2.17;;;15.20;99.90;;;;;;5053905;28;20046;-63
2021/08/27 02:30:16;;;;;;;10.48;1.52;;;15.20;99.90;;;;;;5033926;28;20061;-64
2021/08/27 02:32:43;;;;;;;12.05;2.30;;;15.20;99.90;;;;;;5040343;28;20049;-64
2021/08/27 02:35:10;;;;;;;6.37;1.63;;;15.20;99.90;;;;;;5037059;28;20054;-63
2021/08/27 02:37:38;;;;;;;9.07;1.65;;;15.10;99.90;;;;;;5036552;28;20343;-64
2021/08/27 02:40:05;;;;;;;5.03;1.70;;;15.10;99.90;;;;;;5058884;28;20041;-64
2021/08/27 02:42:31;;;;;;;5.57;1.45;;;15.10;99.90;;;;;;5044991;28;20046;-63
2021/08/27 02:44:59;;;;;;;9.52;2.00;;;15.10;99.90;;;;;;5056369;28;20048;-63
2021/08/27 02:47:25;;;;;;;9.65;1.98;;;15.00;99.90;;;;;;5043438;28;20049;-63
2021/08/27 02:49:51;;;;;;;10.23;2.33;;;14.90;99.90;;;;;;5089104;28;20072;-63
2021/08/27 02:52:38;;;;;;;13.70;2.63;;;14.90;99.90;;;;;;5040586;28;20049;-63
2021/08/27 02:55:25;;;;;;;13.68;2.10;;;14.80;99.90;;;;;;5055374;28;20050;-63
2021/08/27 02:58:06;;;;;;;10.05;2.35;;;14.70;99.90;;;;;;5040538;28;20038;-63
2021/08/27 03:00:37;;;;;;;13.75;3.05;;;14.70;99.90;;;;;;5025948;28;20521;-63
2021/08/27 03:03:04;;;;;;;10.90;2.28;;;14.70;99.90;;;;;;5036415;28;20048;-64
2021/08/27 03:05:38;;;;;;;16.13;2.40;;;14.60;99.90;;;;;;5057685;28;20063;-64
2021/08/27 03:08:07;;;;;;;18.70;3.35;;;14.70;99.90;;;;;;5045078;28;20037;-63
2021/08/27 03:10:43;;;;;;;7.90;2.20;;;14.70;99.90;;;;;;5061382;28;20037;-63
2021/08/27 03:13:16;;;;;;;12.20;2.10;;;14.70;99.90;;;;;;5050401;28;20070;-63
2021/08/27 03:15:47;;;;;;;15.15;2.83;;;14.70;99.90;;;;;;5060681;28;20049;-63
2021/08/27 03:18:30;;;;;;;13.38;3.40;;;14.70;99.90;;;;;;5049409;28;20430;-63
2021/08/27 03:21:02;;;;;;;11.70;2.55;;;14.70;99.90;;;;;;5038196;28;20037;-63
2021/08/27 03:23:31;;;;;;;12.15;2.50;;;14.60;99.90;;;;;;5045619;28;20065;-63
2021/08/27 03:26:01;;;;;;;8.25;2.50;;;14.50;99.90;;;;;;5037067;28;20045;-63
2021/08/27 03:28:27;;;;;;;8.13;2.70;;;14.40;99.90;;;;;;5045473;28;20053;-64
2021/08/27 03:30:55;;;;;;;11.80;2.65;;;14.30;99.90;;;;;;5054200;28;20045;-64
2021/08/27 03:33:25;;;;;;;17.20;2.92;;;14.30;99.90;;;;;;5043272;28;20050;-63
2021/08/27 03:35:53;;;;;;;17.05;2.95;;;14.20;99.90;;;;;;5033721;28;20045;-63
2021/08/27 03:38:20;;;;;;;13.48;2.58;;;14.30;99.90;;;;;;5031120;28;20053;-63
2021/08/27 03:40:48;;;;;;;13.30;2.72;;;14.20;99.90;;;;;;5042245;28;20093;-63
2021/08/27 03:43:15;;;;;;;14.38;3.13;;;14.30;99.90;;;;;;5056645;28;20037;-63
2021/08/27 03:45:41;;;;;;;15.32;2.97;;;14.30;99.90;;;;;;5051357;28;20068;-64
2021/08/27 03:48:07;;;;;;;8.85;2.38;;;14.50;99.90;;;;;;5048654;28;20045;-64
2021/08/27 03:50:34;;;;;;;11.55;2.97;;;14.50;99.90;;;;;;5041741;28;20129;-63
2021/08/27 03:53:00;;;;;;;11.43;3.35;;;14.50;99.90;;;;;;5046267;28;20049;-64
2021/08/27 03:55:28;;;;;;;10.52;2.42;;;14.50;99.90;;;;;;5055459;28;20481;-64
2021/08/27 03:57:56;;;;;;;11.30;2.60;;;14.40;99.90;;;;;;5038775;28;20050;-64
2021/08/27 04:00:23;;;;;;;11.40;2.88;;;14.30;99.90;;;;;;5056567;28;20049;-64
2021/08/27 04:02:52;;;;;;;9.05;2.95;;;14.20;99.90;;;;;;5037392;28;20042;-64
2021/08/27 04:05:20;;;;;;;11.73;2.30;;;14.20;99.90;;;;;;5059129;28;20526;-64
2021/08/27 04:07:47;;;;;;;10.30;2.88;;;14.20;99.90;;;;;;5036826;28;20060;-64
2021/08/27 04:10:16;;;;;;;8.40;2.37;;;14.20;99.90;;;;;;5057805;28;20045;-64
2021/08/27 04:12:43;;;;;;;13.13;3.75;;;14.10;99.90;;;;;;5043243;28;20048;-64
2021/08/27 04:15:11;;;;;;;10.85;2.28;;;14.20;99.90;;;;;;5056056;28;20055;-64
2021/08/27 04:17:38;;;;;;;10.27;3.30;;;14.20;99.90;;;;;;5041808;28;20076;-65
2021/08/27 04:20:05;;;;;;;13.57;3.03;;;14.10;99.90;;;;;;5041671;28;20053;-64
2021/08/27 04:22:31;;;;;;;;;;;14.20;99.90;;;;;;5053413;28;20049;-64
2021/08/27 04:24:57;;;;;;;17.40;3.08;;;14.10;99.90;;;;;;5040367;28;19967;-64
2021/08/27 04:27:23;;;;;;;25.90;3.60;;;14.10;99.90;;;;;;5064301;28;20052;-65
2021/08/27 04:29:50;;;;;;;18.63;3.65;;;14.10;99.90;;;;;;5049844;28;20119;-64
2021/08/27 04:32:16;;;;;;;19.27;3.55;;;14.10;99.90;;;;;;5060348;28;20051;-64
2021/08/27 04:34:41;;;;;;;19.05;3.08;;;14.10;99.90;;;;;;5039663;28;20045;-64
2021/08/27 04:37:07;;;;;;;16.10;2.90;;;14.10;99.90;;;;;;5050992;28;20037;-64
2021/08/27 04:39:33;;;;;;;15.30;3.10;;;14.30;99.90;;;;;;5039658;28;20073;-64
2021/08/27 04:42:00;;;;;;;14.90;2.72;;;14.40;99.90;;;;;;5044830;28;20056;-64
2021/08/27 04:44:26;;;;;;;11.23;2.90;;;14.50;99.90;;;;;;5046015;28;20053;-64
2021/08/27 04:46:51;;;;;;;20.35;3.33;;;14.60;99.90;;;;;;5045013;28;20048;-64
2021/08/27 04:49:17;;;;;;;9.00;2.08;;;14.70;99.90;;;;;;5058617;28;20033;-64
2021/08/27 04:51:43;;;;;;;10.02;3.03;;;14.60;99.90;;;;;;5049295;28;20067;-64
2021/08/27 04:54:09;;;;;;;9.00;2.00;;;14.60;99.90;;;;;;5063079;28;20036;-64
2021/08/27 04:56:34;;;;;;;4.75;1.67;;;14.60;99.90;;;;;;5048529;28;20069;-64
2021/08/27 04:59:00;;;;;;;9.05;2.40;;;14.50;99.90;;;;;;5061657;28;20049;-64
2021/08/27 05:01:27;;;;;;;9.23;1.67;;;14.50;99.90;;;;;;5044882;28;20422;-64
2021/08/27 05:03:52;;;;;;;8.93;1.60;;;14.40;99.90;;;;;;5050416;28;20045;-65
2021/08/27 05:06:18;;;;;;;6.57;2.58;;;14.40;99.90;;;;;;5048553;28;20038;-64
2021/08/27 05:08:44;;;;;;;11.07;2.20;;;14.40;99.90;;;;;;5056321;28;20088;-64
2021/08/27 05:11:10;;;;;;;13.68;2.10;;;14.40;99.90;;;;;;5051413;28;20188;-64
2021/08/27 05:13:36;;;;;;;12.80;2.80;;;14.40;99.90;;;;;;5050248;28;20062;-64
2021/08/27 05:16:02;;;;;;;13.68;2.65;;;14.40;99.90;;;;;;5054073;28;20044;-64
2021/08/27 05:18:29;;;;;;;10.23;2.05;;;14.50;99.90;;;;;;5045020;28;20069;-64
2021/08/27 05:20:56;;;;;;;9.05;2.50;;;14.60;99.90;;;;;;5055383;28;20046;-64
2021/08/27 05:23:22;;;;;;;10.27;3.25;;;14.70;99.90;;;;;;5043462;28;20046;-64
2021/08/27 05:25:47;;;;;;;10.00;2.63;;;14.70;99.90;;;;;;5056075;28;20050;-63
2021/08/27 05:28:13;;;;;;;10.75;2.75;;;14.80;99.90;;;;;;5040947;28;20191;-64
2021/08/27 05:30:39;;;;;;;6.13;1.23;;;14.90;99.90;;;;;;5055270;28;20087;-64
2021/08/27 05:33:05;;;;;;;7.05;1.35;;;14.90;99.90;;;;;;5049669;28;20046;-64
2021/08/27 05:35:30;;;;;;;9.27;1.60;;;15.00;99.90;;;;;;5043163;28;20517;-64
2021/08/27 05:37:56;;;;;;;10.00;1.98;;;15.10;99.90;;;;;;5054184;28;20037;-64
2021/08/27 05:40:22;;;;;;;10.90;2.13;;;15.10;99.90;;;;;;5034715;28;20042;-64
2021/08/27 05:42:47;;;;;;;7.13;1.85;;;15.10;99.90;;;;;;5055855;28;20124;-64
2021/08/27 05:45:15;;;;;;;9.13;1.38;;;15.10;99.90;;;;;;5040399;28;20048;-64
2021/08/27 05:47:42;;;;;;;12.50;2.20;;;15.10;99.90;;;;;;5054574;28;20493;-64
2021/08/27 05:50:09;;;;;;;13.48;2.38;;;15.10;99.90;;;;;;5039070;28;20040;-64
2021/08/27 05:52:35;;;;;;;6.82;1.63;;;15.10;99.90;;;;;;5041098;28;20099;-64
2021/08/27 05:55:01;;;;;;;11.35;1.80;;;15.20;99.90;;;;;;5035673;28;20073;-64
2021/08/27 05:57:28;;;;;;;11.00;2.40;;;15.10;99.90;;;;;;5051095;28;20037;-65
2021/08/27 05:59:53;;;;;;;9.95;2.03;;;15.10;99.90;;;;;;5050757;28;20049;-64
2021/08/27 06:02:19;;;;;;;11.70;2.80;;;15.10;99.90;;;;;;5047165;28;20378;-64
2021/08/27 06:04:45;;;;;;;15.32;2.35;;;15.10;99.90;;;;;;5053502;28;20107;-65
2021/08/27 06:07:11;;;;;;;8.38;2.00;;;15.20;99.90;;;;;;5042565;28;20040;-64
2021/08/27 06:09:37;;;;;;;10.88;1.63;;;15.30;99.90;;;;;;5062040;28;20473;-65
2021/08/27 06:12:03;;;;;;;10.65;2.60;;;15.30;99.90;;;;;;5043977;28;20049;-64
2021/08/27 06:14:29;;;;;;;8.50;2.05;;;15.40;99.90;;;;;;5053058;28;20045;-65
2021/08/27 06:16:54;;;;;;;4.88;1.75;;;15.40;99.90;;;;;;5045987;28;20418;-65
2021/08/27 06:19:20;;;;;;;15.73;2.42;;;15.40;99.90;;;;;;5059343;28;20099;-65
2021/08/27 06:21:46;;;;;;;7.00;1.42;;;15.40;99.90;;;;;;5044658;28;20518;-66
2021/08/27 06:24:11;;;;;;;11.57;1.42;;;15.40;99.90;;;;;;5057503;28;20044;-66
2021/08/27 06:26:37;;;;;;;8.43;1.50;;;15.40;99.90;;;;;;5047503;28;20049;-66
2021/08/27 06:29:04;;;;;;;12.38;1.65;;;15.60;99.90;;;;;;5052802;28;20069;-66
2021/08/27 06:31:31;;;;;;;8.65;1.52;;;15.50;99.90;;;;;;5048338;28;20046;-65
2021/08/27 06:33:57;;;;;;;9.15;1.67;;;15.40;99.90;;;;;;5036579;28;20164;-65
2021/08/27 06:36:23;;;;;;;6.55;1.50;;;15.30;99.90;;;;;;5035360;28;20102;-65
2021/08/27 06:38:49;;;;;;;4.95;1.30;;;15.40;99.90;;;;;;5053765;28;20049;-65
2021/08/27 06:41:14;;;;;;;6.53;1.38;;;15.40;99.90;;;;;;5050962;28;20054;-65
2021/08/27 06:43:45;;;;;;;3.88;1.38;;;15.40;99.90;;;;;;5088400;28;20041;-65
2021/08/27 06:46:17;;;;;;;6.45;1.27;;;15.40;99.90;;;;;;5046707;28;20066;-65
2021/08/27 06:48:43;;;;;;;13.43;2.00;;;15.30;99.90;;;;;;5055664;28;20436;-65
2021/08/27 06:51:09;;;;;;;13.27;2.10;;;15.40;99.90;;;;;;5043742;28;20045;-65
2021/08/27 06:53:35;;;;;;;9.95;2.47;;;15.50;99.90;;;;;;5057482;28;20042;-65
2021/08/27 06:56:01;;;;;;;12.85;2.20;;;15.60;99.90;;;;;;5042157;28;20050;-65
2021/08/27 06:58:27;;;;;;;10.77;1.90;;;15.70;99.90;;;;;;5056121;28;20079;-64
2021/08/27 07:00:53;;;;;;;9.45;2.05;;;15.80;99.90;;;;;;5041192;28;20048;-64
2021/08/27 07:03:19;;;;;;;5.97;1.70;;;15.80;99.90;;;;;;5054985;28;20044;-64
2021/08/27 07:05:45;;;;;;;14.00;2.15;;;15.90;99.90;;;;;;5038984;28;20041;-65
2021/08/27 07:08:10;;;;;;;10.43;1.80;;;15.90;99.90;;;;;;5052470;28;20037;-64
2021/08/27 07:10:36;;;;;;;11.57;2.20;;;15.90;99.90;;;;;;5036515;28;20049;-64
2021/08/27 07:13:03;;;;;;;9.32;1.25;;;15.90;99.90;;;;;;5049876;28;20040;-64
2021/08/27 07:15:29;;;;;;;13.25;2.47;;;15.80;99.90;;;;;;5049603;28;20100;-65
2021/08/27 07:17:55;;;;;;;1.77;0.68;;;15.80;99.90;;;;;;5043880;28;20045;-65
2021/08/27 07:20:22;;;;;;;5.60;1.25;;;15.50;99.90;;;;;;5058794;28;20067;-65
2021/08/27 07:22:48;;;;;;;5.63;1.40;;;15.40;99.90;;;;;;5047227;28;20044;-65
2021/08/27 07:25:14;;;;;;;4.97;0.98;;;15.20;99.90;;;;;;5059955;28;20071;-65
2021/08/27 07:27:40;;;;;;;8.05;1.42;;;15.00;99.90;;;;;;5046296;28;20195;-64
2021/08/27 07:30:08;;;;;;;4.95;1.30;;;15.00;99.90;;;;;;5046183;28;20068;-64
2021/08/27 07:32:34;;;;;;;;;;;15.00;99.90;;;;;;5043295;28;20052;-65
2021/08/27 07:34:59;;;;;;;5.47;1.60;;;15.20;99.90;;;;;;5050566;28;19925;-65
2021/08/27 07:37:25;;;;;;;11.80;2.03;;;15.30;99.90;;;;;;5042931;28;20049;-64
2021/08/27 07:39:51;;;;;;;8.63;1.85;;;15.60;99.90;;;;;;5046525;28;20076;-64
2021/08/27 07:42:17;;;;;;;13.02;1.92;;;16.00;99.90;;;;;;5062230;28;20110;-64
2021/08/27 07:44:43;;;;;;;10.95;2.35;;;16.40;99.90;;;;;;5046787;28;20046;-63
2021/08/27 07:47:09;;;;;;;11.80;2.05;;;16.70;99.90;;;;;;5051733;28;20037;-64
2021/08/27 07:49:34;;;;;;;16.00;3.10;;;16.80;99.90;;;;;;5040095;28;20038;-64
2021/08/27 07:52:02;;;;;;;18.27;3.42;;;16.90;99.90;;;;;;5058506;28;20041;-64
2021/08/27 07:54:28;;;;;;;11.38;2.65;;;16.80;99.90;;;;;;5078161;28;20073;-64
2021/08/27 07:56:54;;;;;;;15.57;2.45;;;16.70;99.90;;;;;;5055225;28;20067;-64
2021/08/27 07:59:20;;;;;;;10.07;2.53;;;16.70;99.90;;;;;;5049030;28;20042;-64
2021/08/27 08:01:46;;;;;;;11.98;3.45;;;16.70;99.90;;;;;;5049884;28;20096;-64
2021/08/27 08:04:13;;;;;;;8.43;1.70;;;16.60;99.90;;;;;;5051388;28;20050;-64
2021/08/27 08:06:38;;;;;;;9.37;2.37;;;16.80;99.90;;;;;;5043922;28;20088;-64
2021/08/27 08:09:05;;;;;;;9.32;2.47;;;17.10;99.90;;;;;;5051962;28;20042;-64
2021/08/27 08:11:31;;;;;;;10.70;2.38;;;17.30;99.90;;;;;;5041294;28;20030;-64
2021/08/27 08:13:58;;;;;;;13.13;2.38;;;17.40;99.90;;;;;;5054411;28;20049;-64
2021/08/27 08:16:24;;;;;;;6.80;2.30;;;17.70;99.90;;;;;;5039826;28;20045;-64
2021/08/27 08:18:49;;;;;;;8.70;2.72;;;17.70;99.90;;;;;;5053397;28;20052;-64
2021/08/27 08:21:17;;;;;;;5.38;2.03;;;17.80;99.90;;;;;;5038199;28;20073;-64
2021/08/27 08:23:43;;;;;;;7.88;2.50;;;17.90;99.90;;;;;;5051353;28;20059;-64
2021/08/27 08:26:09;;;;;;;7.03;1.70;;;18.20;99.90;;;;;;5030887;28;20037;-64
2021/08/27 08:28:35;;;;;;;8.13;2.10;;;18.10;99.90;;;;;;5050143;28;20128;-64
2021/08/27 08:31:01;;;;;;;6.45;1.90;;;17.80;99.90;;;;;;5062808;28;20049;-64
2021/08/27 08:33:26;;;;;;;8.85;2.38;;;17.80;99.90;;;;;;5047455;28;20043;-64
2021/08/27 08:35:52;;;;;;;5.85;2.03;;;17.80;99.90;;;;;;5046056;28;20508;-64
2021/08/27 08:38:18;;;;;;;5.13;1.52;;;17.60;99.90;;;;;;5038019;28;20099;-64
2021/08/27 08:40:46;;;;;;;10.43;2.75;;;17.10;99.90;;;;;;5051552;28;20104;-64
2021/08/27 08:43:13;;;;;;;7.43;2.28;;;17.00;99.90;;;;;;5032900;28;20053;-64
2021/08/27 08:45:49;;;;;;;13.80;2.33;;;16.80;99.90;;;;;;5047629;28;20055;-64
2021/08/27 08:48:20;;;;;;;12.00;2.65;;;16.90;99.90;;;;;;5060752;28;20041;-64
2021/08/27 08:50:47;;;;;;;9.55;2.78;;;17.10;99.90;;;;;;5050903;28;20060;-64
2021/08/27 08:53:13;;;;;;;13.10;2.40;;;17.50;99.90;;;;;;5065469;28;20475;-64
2021/08/27 08:55:40;;;;;;;8.82;2.95;;;17.80;99.90;;;;;;5046428;28;20099;-64
2021/08/27 08:58:07;;;;;;;11.65;2.65;;;17.70;99.90;;;;;;5046703;28;20046;-64
2021/08/27 09:00:33;;;;;;;9.50;2.58;;;17.60;99.90;;;;;;5048805;28;20523;-64
2021/08/27 09:03:01;;;;;;;9.10;1.98;;;17.70;99.90;;;;;;5062903;28;20045;-64
2021/08/27 09:05:27;;;;;;;12.73;2.28;;;17.80;99.90;;;;;;5042054;28;20045;-64
2021/08/27 09:07:53;;;;;;;10.70;3.45;;;18.00;99.90;;;;;;5044606;28;20052;-63
2021/08/27 09:10:20;;;;;;;8.43;2.50;;;18.30;99.90;;;;;;5043772;28;20048;-64
2021/08/27 09:12:47;;;;;;;12.52;2.90;;;18.60;99.90;;;;;;5050431;28;20041;-63
2021/08/27 09:15:17;;;;;;;15.07;2.50;;;18.50;99.90;;;;;;5040698;28;20061;-63
2021/08/27 09:17:48;;;;;;;11.82;2.95;;;18.30;99.90;;;;;;5058756;28;20052;-63
2021/08/27 09:20:19;;;;;;;10.82;3.03;;;18.30;99.90;;;;;;5043166;28;20461;-63
2021/08/27 09:22:51;;;;;;;9.88;2.40;;;18.10;99.90;;;;;;5057219;28;20044;-63
2021/08/27 09:25:21;;;;;;;10.48;2.42;;;18.40;99.90;;;;;;5042524;28;20046;-63
2021/08/27 09:28:13;;;;;;;10.75;2.45;;;18.70;99.90;;;;;;5055668;28;20088;-63
2021/08/27 09:30:54;;;;;;;4.97;1.77;;;18.90;99.90;;;;;;5040044;28;20068;-63
2021/08/27 09:33:26;;;;;;;8.60;1.80;;;18.70;99.90;;;;;;5054507;28;20049;-63
2021/08/27 09:36:02;;;;;;;4.85;1.83;;;18.50;99.90;;;;;;5045416;28;20047;-63
2021/08/27 09:38:36;;;;;;;12.93;2.78;;;18.20;99.90;;;;;;5042945;28;20071;-63
2021/08/27 09:41:05;;;;;;;6.30;1.80;;;18.10;99.90;;;;;;5043562;28;20141;-63
2021/08/27 09:43:47;;;;;;;4.00;1.65;;;18.00;99.90;;;;;;5043521;28;20063;-63
2021/08/27 09:46:32;;;;;;;13.90;2.65;;;17.90;99.90;;;;;;5042647;28;20453;-63
2021/08/27 09:48:58;;;;;;;9.50;1.92;;;18.00;99.90;;;;;;5043483;28;20071;-64
2021/08/27 09:51:39;;;;;;;8.25;2.40;;;17.90;99.90;;;;;;5055874;28;20045;-64
2021/08/27 09:54:05;;;;;;;10.15;2.70;;;18.00;99.90;;;;;;5042482;28;20049;-63
2021/08/27 09:56:49;;;;;;;8.75;1.92;;;18.10;99.90;;;;;;5053725;28;20029;-63
2021/08/27 09:59:15;;;;;;;9.60;2.15;;;18.20;99.90;;;;;;5040852;28;20042;-63
2021/08/27 10:01:48;;;;;;;12.27;3.25;;;18.40;99.90;;;;;;5054056;28;20044;-63
2021/08/27 10:04:15;;;;;;;7.85;2.42;;;18.40;99.90;;;;;;5040060;28;20048;-63
2021/08/27 10:06:42;;;;;;;6.75;1.45;;;18.50;99.90;;;;;;5053775;28;20139;-63
2021/08/27 10:09:08;;;;;;;13.07;2.72;;;18.50;99.90;;;;;;5050262;28;20124;-63
2021/08/27 10:11:35;;;;;;;6.38;1.65;;;18.30;99.90;;;;;;5051196;28;20523;-64
2021/08/27 10:14:01;;;;;;;5.90;2.20;;;17.10;99.90;;;;;;5063932;28;20033;-64
2021/08/27 10:16:29;;;;;;;6.90;2.28;;;16.70;99.90;;;;;;5049240;28;20045;-64
2021/08/27 10:18:56;;;;;;;7.95;1.98;;;16.50;99.90;;;;;;5049465;28;20523;-64
2021/08/27 10:21:22;;;;;;;4.18;1.70;;;16.60;99.90;;;;;;5046586;28;20080;-64
2021/08/27 10:23:48;;;;;;;5.47;1.42;;;16.90;99.90;;;;;;5060058;28;20051;-63
2021/08/27 10:26:21;;;;;;;8.63;2.35;;;17.20;99.90;;;;;;5044228;28;20041;-64
2021/08/27 10:28:48;;;;;;;6.05;1.85;;;17.50;99.90;;;;;;5056624;28;20041;-63
2021/08/27 10:31:15;;;;;;;8.63;2.08;;;17.70;99.90;;;;;;5041687;28;20071;-63
2021/08/27 10:33:43;;;;;;;6.97;2.05;;;18.00;99.90;;;;;;5043083;28;20106;-63
2021/08/27 10:36:21;;;;;;;7.00;1.63;;;18.20;99.90;;;;;;5043139;28;20488;-63
2021/08/27 10:38:52;;;;;;;10.57;2.78;;;18.20;99.90;;;;;;5047333;28;20045;-63
2021/08/27 10:41:27;;;;;;;5.78;1.80;;;18.10;99.90;;;;;;5060701;28;20127;-63
2021/08/27 10:44:01;;;;;;;8.32;1.80;;;18.10;99.90;;;;;;5046285;28;20048;-63
2021/08/27 10:47:03;;;;;;;8.32;1.90;;;18.20;99.90;;;;;;5059857;28;20044;-63
2021/08/27 10:49:47;;;;;;;11.60;1.70;;;18.40;99.90;;;;;;5021799;28;20170;-63
2021/08/27 10:52:27;;;;;;;10.43;1.80;;;18.60;99.90;;;;;;5009627;28;20065;-63
2021/08/27 10:55:02;;;;;;;13.98;2.78;;;18.70;99.90;;;;;;5021560;28;20050;-63
2021/08/27 10:57:28;;;;;;;12.25;2.55;;;18.70;99.90;;;;;;5021374;28;20052;-63
2021/08/27 10:59:59;;;;;;;11.23;2.55;;;18.50;99.90;;;;;;5021643;28;20099;-63
2021/08/27 11:02:25;;;;;;;9.77;2.75;;;18.80;99.90;;;;;;5021501;28;20089;-63
2021/08/27 11:04:51;;;;;;;10.48;3.10;;;18.70;99.90;;;;;;5021678;28;20058;-63
2021/08/27 11:07:20;;;;;;;11.85;2.25;;;18.70;99.90;;;;;;5021340;28;20045;-63
2021/08/27 11:10:07;;;;;;;8.52;2.22;;;18.80;99.90;;;;;;5021991;28;20065;-63
2021/08/27 11:12:33;;;;;;;4.85;1.58;;;19.00;99.90;;;;;;5008779;28;20068;-63
2021/08/27 11:15:33;;;;;;;3.55;1.20;;;18.90;99.90;;;;;;5021284;28;20042;-63
2021/08/27 11:18:16;;;;;;;7.10;1.60;;;18.90;99.90;;;;;;5012989;28;20058;-63
2021/08/27 11:20:47;;;;;;;11.60;1.90;;;18.60;99.90;;;;;;5020391;28;20085;-63
2021/08/27 11:23:13;;;;;;;12.02;1.90;;;18.70;99.90;;;;;;5021416;28;20042;-63
2021/08/27 11:26:03;;;;;;;8.63;2.08;;;19.00;99.90;;;;;;5037680;28;20061;-63
2021/08/27 11:28:34;;;;;;;5.47;1.92;;;19.10;99.90;;;;;;5060876;28;20092;-63
2021/08/27 11:31:01;;;;;;;6.25;1.52;;;19.10;99.90;;;;;;5045597;28;20052;-63
2021/08/27 11:33:50;;;;;;;9.52;2.35;;;18.80;99.90;;;;;;5059112;28;20076;-63
2021/08/27 11:36:18;;;;;;;10.05;2.30;;;18.60;99.90;;;;;;5030867;28;20131;-63
2021/08/27 11:38:53;;;;;;;9.10;2.10;;;18.40;99.90;;;;;;5040933;28;20042;-63
2021/08/27 11:41:21;;;;;;;4.47;1.40;;;18.60;99.90;;;;;;5032614;28;20074;-63
2021/08/27 11:44:01;;;;;;;4.35;1.83;;;18.80;99.90;;;;;;5048862;28;20067;-63
2021/08/27 11:46:28;;;;;;;5.35;1.27;;;19.10;99.90;;;;;;5058882;28;20112;-63
2021/08/27 11:49:03;;;;;;;9.50;1.75;;;19.00;99.90;;;;;;5036086;28;20161;-63
2021/08/27 11:51:35;;;;;;;7.65;2.15;;;18.80;99.90;;;;;;5058022;28;20119;-63
2021/08/27 11:54:19;;;;;;;6.53;2.05;;;18.70;99.90;;;;;;5036650;28;20436;-63
2021/08/27 11:56:52;;;;;;;9.80;1.52;;;18.70;99.90;;;;;;5052623;28;20050;-63
2021/08/27 11:59:21;;;;;;;5.93;1.77;;;18.60;99.90;;;;;;5045902;28;20052;-63
2021/08/27 12:01:46;;;;;;;8.07;2.00;;;18.70;99.90;;;;;;5058090;28;20069;-63
2021/08/27 12:04:30;;;;;;;6.80;2.05;;;18.70;99.90;;;;;;5043397;28;20041;-63
2021/08/27 12:07:14;;;;;;;7.97;2.00;;;18.70;99.90;;;;;;5057401;28;20091;-63
2021/08/27 12:09:41;;;;;;;5.97;1.80;;;18.80;99.90;;;;;;5044052;28;20120;-63
2021/08/27 12:12:27;;;;;;;6.75;1.67;;;18.70;99.90;;;;;;5054736;28;20041;-63
2021/08/27 12:14:53;;;;;;;5.20;1.63;;;18.50;99.90;;;;;;5042191;28;20074;-63
2021/08/27 12:17:25;;;;;;;7.00;1.80;;;18.60;99.90;;;;;;5042062;28;20045;-63
2021/08/27 12:19:52;;;;;;;6.00;1.48;;;18.90;99.90;;;;;;5040593;28;20103;-63
2021/08/27 12:22:18;;;;;;;;;;;18.90;99.90;;;;;;5054255;28;20045;-63
2021/08/27 12:24:46;;;;;;;8.25;1.70;;;18.90;99.90;;;;;;5042303;28;20372;-63
2021/08/27 12:27:12;;;;;;;6.60;1.58;;;19.00;99.90;;;;;;5056309;28;20059;-63
2021/08/27 12:29:38;;;;;;;9.48;2.47;;;18.60;99.90;;;;;;5041379;28;20280;-63
2021/08/27 12:32:06;;;;;;;7.50;2.00;;;18.80;99.90;;;;;;5055514;28;20063;-63
2021/08/27 12:34:31;;;;;;;14.43;2.28;;;18.80;99.90;;;;;;5048902;28;20075;-63
2021/08/27 12:36:57;;;;;;;15.38;2.67;;;18.70;99.90;;;;;;5044875;28;20037;-63
2021/08/27 12:39:23;;;;;;;10.93;2.42;;;18.80;99.90;;;;;;5057434;28;20126;-63
2021/08/27 12:41:49;;;;;;;8.65;2.28;;;18.60;99.90;;;;;;5042114;28;20488;-63
2021/08/27 12:44:16;;;;;;;10.82;2.03;;;18.50;99.90;;;;;;5055991;28;20069;-63
2021/08/27 12:46:47;;;;;;;5.43;1.85;;;18.50;99.90;;;;;;5041009;28;20073;-63
2021/08/27 12:49:21;;;;;;;9.60;2.20;;;18.40;99.90;;;;;;5054472;28;20079;-62
2021/08/27 12:51:48;;;;;;;5.75;1.50;;;18.50;99.90;;;;;;5039024;28;20049;-63